Time;durP1;ratioP1;P1;durP2;ratioP2;P2;SDS_P1;SDS_P2;PMS_P1;PMS_P2;Temp;Humidity;BMP_temperature;BMP_pressure;BME280_temperature;BME280_humidity;BME280_pressure;Samples;Min_cycle;Max_cycle;Signal;HPM_P1;HPM_P2
2021/09/22 00:01:08;;;;;;;17.88;7.85;;;;;;;;;;5035895;28;20160;-53
2021/09/22 00:03:33;;;;;;;17.63;9.05;;;;;;;;;;5036437;28;20041;-56
2021/09/22 00:05:59;;;;;;;14.45;7.65;;;;;;;;;;5035828;28;20407;-56
2021/09/22 00:08:24;;;;;;;14.93;8.15;;;;;;;;;;5036096;28;20104;-55
2021/09/22 00:10:49;;;;;;;14.32;8.25;;;;;;;;;;5035776;28;20475;-55
2021/09/22 00:13:14;;;;;;;15.35;8.30;;;;;;;;;;5001971;28;20032;-55
2021/09/22 00:15:40;;;;;;;16.95;8.35;;;;;;;;;;5035828;28;20039;-55
2021/09/22 00:18:05;;;;;;;15.02;8.40;;;;;;;;;;5018131;28;20031;-56
2021/09/22 00:20:30;;;;;;;13.88;7.82;;;;;;;;;;5035681;28;20053;-54
2021/09/22 00:22:56;;;;;;;15.10;8.43;;;;;;;;;;5035833;28;20045;-55
2021/09/22 00:25:22;;;;;;;14.35;8.52;;;;;;;;;;5035536;28;20036;-55
2021/09/22 00:27:47;;;;;;;14.95;8.90;;;;;;;;;;5035801;28;20467;-54
2021/09/22 00:30:13;;;;;;;13.20;8.35;;;;;;;;;;5035301;28;20097;-55
2021/09/22 00:32:38;;;;;;;13.13;8.10;;;;;;;;;;5035889;28;20022;-55
2021/09/22 00:35:04;;;;;;;13.82;8.23;;;;;;;;;;5035066;28;20482;-55
2021/09/22 00:37:30;;;;;;;14.95;7.63;;;;;;;;;;5035748;28;20105;-54
2021/09/22 00:39:55;;;;;;;12.55;8.07;;;;;;;;;;5017700;28;20529;-55
2021/09/22 00:42:20;;;;;;;15.00;8.13;;;;;;;;;;5017626;28;20029;-55
2021/09/22 00:44:49;;;;;;;13.73;8.93;;;;;;;;;;5035511;28;20022;-54
2021/09/22 00:47:14;;;;;;;13.90;8.20;;;;;;;;;;5034825;28;20056;-55
2021/09/22 00:49:40;;;;;;;15.00;7.57;;;;;;;;;;5035562;28;20018;-54
2021/09/22 00:52:05;;;;;;;14.15;8.25;;;;;;;;;;5034640;28;20503;-55
2021/09/22 00:54:30;;;;;;;12.98;8.32;;;;;;;;;;5035534;28;20018;-54
2021/09/22 00:56:55;;;;;;;16.92;8.32;;;;;;;;;;5035025;28;20533;-55
2021/09/22 00:59:21;;;;;;;18.20;8.27;;;;;;;;;;5017566;28;20025;-54
2021/09/22 01:01:49;;;;;;;13.55;8.18;;;;;;;;;;5033148;28;20367;-54
2021/09/22 01:04:15;;;;;;;15.60;8.15;;;;;;;;;;5035160;28;20105;-54
2021/09/22 01:06:40;;;;;;;15.77;8.23;;;;;;;;;;5034512;28;20121;-56
2021/09/22 01:09:05;;;;;;;14.95;9.40;;;;;;;;;;5034975;28;20025;-54
2021/09/22 01:11:33;;;;;;;18.10;8.75;;;;;;;;;;5034397;28;20165;-54
2021/09/22 01:13:59;;;;;;;13.65;8.43;;;;;;;;;;5034857;28;20033;-55
2021/09/22 01:16:24;;;;;;;13.98;9.10;;;;;;;;;;5034400;28;20029;-54
2021/09/22 01:18:49;;;;;;;14.20;8.93;;;;;;;;;;5035052;28;20036;-54
2021/09/22 01:21:17;;;;;;;15.82;8.50;;;;;;;;;;5034470;28;20029;-54
2021/09/22 01:23:42;;;;;;;16.58;8.60;;;;;;;;;;5034679;28;20107;-55
2021/09/22 01:26:08;;;;;;;15.70;8.70;;;;;;;;;;5034316;28;20117;-55
2021/09/22 01:28:33;;;;;;;15.43;8.27;;;;;;;;;;5016962;28;20033;-55
2021/09/22 01:30:59;;;;;;;15.30;9.68;;;;;;;;;;5034057;28;20054;-55
2021/09/22 01:33:24;;;;;;;14.43;9.18;;;;;;;;;;5034726;28;20029;-56
2021/09/22 01:35:49;;;;;;;17.48;9.05;;;;;;;;;;5034089;28;20029;-55
2021/09/22 01:38:16;;;;;;;15.35;9.68;;;;;;;;;;5034414;28;20083;-53
2021/09/22 01:40:51;;;;;;;17.48;9.73;;;;;;;;;;5034207;28;20049;-55
2021/09/22 01:43:16;;;;;;;16.63;8.80;;;;;;;;;;5034330;28;20124;-55
2021/09/22 01:45:41;;;;;;;14.18;9.18;;;;;;;;;;5033944;28;20567;-54
2021/09/22 01:48:07;;;;;;;15.68;9.75;;;;;;;;;;5034232;28;20029;-55
2021/09/22 01:50:32;;;;;;;16.65;10.15;;;;;;;;;;5033903;28;20101;-55
2021/09/22 01:52:57;;;;;;;18.92;10.80;;;;;;;;;;5016392;28;20422;-55
2021/09/22 01:55:22;;;;;;;21.30;12.25;;;;;;;;;;5033989;28;20438;-54
2021/09/22 01:57:48;;;;;;;18.92;11.38;;;;;;;;;;5034262;28;20010;-56
2021/09/22 02:00:13;;;;;;;19.23;11.10;;;;;;;;;;5033632;28;20017;-55
2021/09/22 02:02:38;;;;;;;20.45;11.85;;;;;;;;;;5033871;28;20097;-55
2021/09/22 02:05:04;;;;;;;18.42;10.52;;;;;;;;;;5033563;28;20083;-54
2021/09/22 02:07:31;;;;;;;21.67;12.20;;;;;;;;;;5033688;28;20387;-55
2021/09/22 02:09:57;;;;;;;20.15;11.48;;;;;;;;;;5033758;28;20483;-55
2021/09/22 02:12:22;;;;;;;18.15;11.43;;;;;;;;;;5033192;28;20044;-55
2021/09/22 02:14:47;;;;;;;16.48;10.02;;;;;;;;;;5033939;28;20104;-56
2021/09/22 02:17:12;;;;;;;15.30;8.90;;;;;;;;;;5033176;28;20136;-55
2021/09/22 02:19:37;;;;;;;15.10;9.48;;;;;;;;;;5033728;28;20028;-55
2021/09/22 02:22:03;;;;;;;15.02;9.48;;;;;;;;;;5032990;28;20132;-54
2021/09/22 02:24:28;;;;;;;18.60;9.27;;;;;;;;;;5038916;28;20416;-55
2021/09/22 02:26:53;;;;;;;18.35;9.88;;;;;;;;;;5052919;28;20037;-55
2021/09/22 02:29:19;;;;;;;19.60;11.68;;;;;;;;;;5053419;28;20017;-55
2021/09/22 02:31:45;;;;;;;27.65;13.18;;;;;;;;;;5034367;28;20046;-57
2021/09/22 02:34:10;;;;;;;21.05;12.45;;;;;;;;;;5013587;28;20056;-56
2021/09/22 02:36:35;;;;;;;26.73;13.05;;;;;;;;;;4995633;28;20050;-56
2021/09/22 02:39:01;;;;;;;21.75;11.98;;;;;;;;;;4996110;28;20030;-55
2021/09/22 02:41:26;;;;;;;20.50;12.50;;;;;;;;;;5013227;28;20030;-56
2021/09/22 02:43:51;;;;;;;21.27;11.90;;;;;;;;;;4995995;28;20128;-56
2021/09/22 02:46:16;;;;;;;18.05;11.05;;;;;;;;;;4995424;28;20038;-56
2021/09/22 02:48:42;;;;;;;23.38;12.23;;;;;;;;;;5013406;28;20412;-56
2021/09/22 02:51:07;;;;;;;16.67;10.88;;;;;;;;;;5012916;28;20022;-56
2021/09/22 02:53:33;;;;;;;18.90;10.35;;;;;;;;;;5013166;28;20095;-55
2021/09/22 02:55:58;;;;;;;16.98;10.38;;;;;;;;;;5012992;28;20553;-56
2021/09/22 02:58:23;;;;;;;15.95;10.05;;;;;;;;;;5013223;28;20029;-55
2021/09/22 03:00:49;;;;;;;17.73;9.70;;;;;;;;;;5012746;28;20040;-55
2021/09/22 03:03:17;;;;;;;15.63;9.60;;;;;;;;;;5013176;28;20133;-55
2021/09/22 03:05:42;;;;;;;16.25;9.45;;;;;;;;;;5003797;28;20087;-55
2021/09/22 03:08:08;;;;;;;18.67;11.45;;;;;;;;;;5032562;28;20491;-56
2021/09/22 03:10:33;;;;;;;16.02;10.02;;;;;;;;;;5032314;28;20029;-55
2021/09/22 03:12:58;;;;;;;15.48;9.88;;;;;;;;;;5032751;28;20053;-55
2021/09/22 03:15:23;;;;;;;16.77;10.73;;;;;;;;;;5032144;28;20025;-55
2021/09/22 03:17:49;;;;;;;18.42;11.20;;;;;;;;;;5032703;28;20383;-56
2021/09/22 03:20:14;;;;;;;19.38;10.50;;;;;;;;;;5014421;28;20029;-56
2021/09/22 03:22:39;;;;;;;17.17;10.30;;;;;;;;;;5032376;28;20130;-56
2021/09/22 03:25:05;;;;;;;16.90;10.57;;;;;;;;;;5031345;28;20112;-54
2021/09/22 03:27:30;;;;;;;15.27;9.65;;;;;;;;;;5032647;28;20146;-55
2021/09/22 03:29:55;;;;;;;15.93;10.10;;;;;;;;;;5032563;28;20026;-55
2021/09/22 03:32:21;;;;;;;15.27;9.57;;;;;;;;;;5032100;28;20037;-56
2021/09/22 03:34:46;;;;;;;15.05;9.32;;;;;;;;;;5032434;28;20100;-55
2021/09/22 03:37:11;;;;;;;15.63;9.35;;;;;;;;;;5014299;28;20116;-56
2021/09/22 03:39:36;;;;;;;16.75;9.25;;;;;;;;;;5032470;28;20013;-57
2021/09/22 03:42:02;;;;;;;20.50;9.20;;;;;;;;;;5031878;28;20041;-54
2021/09/22 03:44:27;;;;;;;20.25;10.90;;;;;;;;;;5032373;28;20116;-55
2021/09/22 03:46:52;;;;;;;18.92;9.75;;;;;;;;;;5031801;28;20128;-55
2021/09/22 03:49:18;;;;;;;18.88;10.60;;;;;;;;;;5032390;28;20108;-56
2021/09/22 03:51:43;;;;;;;20.15;9.65;;;;;;;;;;5031910;28;20044;-55
2021/09/22 03:54:08;;;;;;;17.60;9.45;;;;;;;;;;5014796;28;20427;-56
2021/09/22 03:56:34;;;;;;;19.95;9.38;;;;;;;;;;5032013;28;20034;-55
2021/09/22 03:59:00;;;;;;;15.55;9.38;;;;;;;;;;5032541;28;20426;-56
2021/09/22 04:01:26;;;;;;;16.15;9.35;;;;;;;;;;5031886;28;20032;-55
2021/09/22 04:03:51;;;;;;;13.10;8.65;;;;;;;;;;5032356;28;20072;-56
2021/09/22 04:06:16;;;;;;;15.25;9.27;;;;;;;;;;5031799;28;20120;-56
2021/09/22 04:08:41;;;;;;;16.48;9.70;;;;;;;;;;5032259;28;20037;-56
2021/09/22 04:11:07;;;;;;;13.98;9.52;;;;;;;;;;5014071;28;20048;-56
2021/09/22 04:13:32;;;;;;;15.40;8.50;;;;;;;;;;5014681;28;20033;-54
2021/09/22 04:15:57;;;;;;;21.00;9.95;;;;;;;;;;5031876;28;20034;-56
2021/09/22 04:18:22;;;;;;;18.40;10.52;;;;;;;;;;5032375;28;20131;-56
2021/09/22 04:20:47;;;;;;;15.68;10.15;;;;;;;;;;5031856;28;20437;-56
2021/09/22 04:23:14;;;;;;;17.92;10.80;;;;;;;;;;5032102;28;20104;-54
2021/09/22 04:25:39;;;;;;;21.27;10.25;;;;;;;;;;5032202;28;20037;-57
2021/09/22 04:28:04;;;;;;;17.38;9.55;;;;;;;;;;5032469;28;20036;-56
2021/09/22 04:30:30;;;;;;;15.25;9.38;;;;;;;;;;5014166;28;20052;-56
2021/09/22 04:32:55;;;;;;;17.80;9.23;;;;;;;;;;5032337;28;20028;-55
2021/09/22 04:35:20;;;;;;;21.98;10.60;;;;;;;;;;5014792;28;20049;-56
2021/09/22 04:37:47;;;;;;;15.95;9.88;;;;;;;;;;5035825;28;20080;-55
2021/09/22 04:40:12;;;;;;;18.02;10.43;;;;;;;;;;5035519;28;20033;-56
2021/09/22 04:42:38;;;;;;;20.42;10.45;;;;;;;;;;5035819;28;20375;-56
2021/09/22 04:45:04;;;;;;;20.92;10.10;;;;;;;;;;5035418;28;20062;-56
2021/09/22 04:47:29;;;;;;;18.63;10.27;;;;;;;;;;5035546;28;20026;-56
2021/09/22 04:49:58;;;;;;;20.02;10.52;;;;;;;;;;5035632;28;20183;-57
2021/09/22 04:52:23;;;;;;;17.70;10.38;;;;;;;;;;5035012;28;20037;-56
2021/09/22 04:54:48;;;;;;;18.02;10.98;;;;;;;;;;5035554;28;20368;-56
2021/09/22 04:57:13;;;;;;;33.50;13.38;;;;;;;;;;5035180;28;20472;-56
2021/09/22 04:59:38;;;;;;;19.60;11.95;;;;;;;;;;5035522;28;20028;-56
2021/09/22 05:02:04;;;;;;;26.98;13.88;;;;;;;;;;5035074;28;20074;-56
2021/09/22 05:04:29;;;;;;;17.50;9.70;;;;;;;;;;5035160;28;20426;-55
2021/09/22 05:06:54;;;;;;;19.70;10.60;;;;;;;;;;5034677;28;20045;-56
2021/09/22 05:09:19;;;;;;;20.67;10.05;;;;;;;;;;5017274;28;20025;-55
2021/09/22 05:11:45;;;;;;;17.67;10.13;;;;;;;;;;5031668;28;20026;-56
2021/09/22 05:14:10;;;;;;;16.70;9.63;;;;;;;;;;5035363;28;20468;-57
2021/09/22 05:16:35;;;;;;;16.02;10.57;;;;;;;;;;5034765;28;20033;-56
2021/09/22 05:19:00;;;;;;;17.58;9.52;;;;;;;;;;5035361;28;20025;-55
2021/09/22 05:21:25;;;;;;;18.98;10.15;;;;;;;;;;5034813;28;20040;-57
2021/09/22 05:23:51;;;;;;;12.88;8.50;;;;;;;;;;5035005;28;20049;-55
2021/09/22 05:26:16;;;;;;;17.67;8.02;;;;;;;;;;5034737;28;20025;-55
2021/09/22 05:28:41;;;;;;;14.93;9.07;;;;;;;;;;5034910;28;20116;-55
2021/09/22 05:31:07;;;;;;;14.65;8.75;;;;;;;;;;5034665;28;20103;-58
2021/09/22 05:33:32;;;;;;;20.67;10.27;;;;;;;;;;5033645;28;20034;-56
2021/09/22 05:35:57;;;;;;;18.25;11.45;;;;;;;;;;5034447;28;20026;-56
2021/09/22 05:38:22;;;;;;;23.48;12.43;;;;;;;;;;5035160;28;20393;-55
2021/09/22 05:40:49;;;;;;;26.27;12.35;;;;;;;;;;5034550;28;20371;-56
2021/09/22 05:43:14;;;;;;;22.85;11.48;;;;;;;;;;5035064;28;20030;-55
2021/09/22 05:45:39;;;;;;;20.27;10.98;;;;;;;;;;5034308;28;20037;-58
2021/09/22 05:48:05;;;;;;;20.80;11.48;;;;;;;;;;5034128;28;20117;-58
2021/09/22 05:50:30;;;;;;;26.45;12.10;;;;;;;;;;5034172;28;20104;-55
2021/09/22 05:52:55;;;;;;;24.20;11.98;;;;;;;;;;5034691;28;20028;-56
2021/09/22 05:55:20;;;;;;;23.88;12.68;;;;;;;;;;5034260;28;20033;-56
2021/09/22 05:57:45;;;;;;;19.80;11.63;;;;;;;;;;5034572;28;20517;-54
2021/09/22 06:00:11;;;;;;;15.15;9.13;;;;;;;;;;5034540;28;20070;-56
2021/09/22 06:02:36;;;;;;;19.23;8.75;;;;;;;;;;5034496;28;20105;-57
2021/09/22 06:05:01;;;;;;;17.08;8.65;;;;;;;;;;5032733;28;20030;-56
2021/09/22 06:07:27;;;;;;;14.02;8.35;;;;;;;;;;5034653;28;20076;-57
2021/09/22 06:09:52;;;;;;;15.82;8.63;;;;;;;;;;5034406;28;20022;-57
2021/09/22 06:12:18;;;;;;;13.77;8.43;;;;;;;;;;5033965;28;20041;-55
2021/09/22 06:14:43;;;;;;;11.88;7.00;;;;;;;;;;5033123;28;20363;-56
2021/09/22 06:17:08;;;;;;;13.95;7.68;;;;;;;;;;5016094;28;20579;-55
2021/09/22 06:19:34;;;;;;;13.52;7.80;;;;;;;;;;5034049;28;20033;-54
2021/09/22 06:21:59;;;;;;;11.93;8.13;;;;;;;;;;5033585;28;20079;-56
2021/09/22 06:24:24;;;;;;;10.23;6.45;;;;;;;;;;5034285;28;20025;-57
2021/09/22 06:26:49;;;;;;;13.25;6.30;;;;;;;;;;5015740;28;20498;-56
2021/09/22 06:29:15;;;;;;;15.18;6.82;;;;;;;;;;5034026;28;20025;-56
2021/09/22 06:31:40;;;;;;;10.18;6.68;;;;;;;;;;5033473;28;20033;-56
2021/09/22 06:34:05;;;;;;;10.90;6.60;;;;;;;;;;5033899;28;20021;-56
2021/09/22 06:36:31;;;;;;;11.05;7.07;;;;;;;;;;5033476;28;20034;-55
2021/09/22 06:38:56;;;;;;;19.33;7.53;;;;;;;;;;5033949;28;20581;-56
2021/09/22 06:41:23;;;;;;;14.90;7.30;;;;;;;;;;5033349;28;20037;-56
2021/09/22 06:43:48;;;;;;;11.35;6.72;;;;;;;;;;5033693;28;20104;-58
2021/09/22 06:46:13;;;;;;;17.63;6.93;;;;;;;;;;5033154;28;20075;-56
2021/09/22 06:48:38;;;;;;;12.77;7.93;;;;;;;;;;5033651;28;20061;-56
2021/09/22 06:51:04;;;;;;;13.80;7.97;;;;;;;;;;5033070;28;20025;-55
2021/09/22 06:53:29;;;;;;;18.17;8.07;;;;;;;;;;5033511;28;20024;-55
2021/09/22 06:55:54;;;;;;;17.73;8.73;;;;;;;;;;5032901;28;20030;-55
2021/09/22 06:58:20;;;;;;;14.77;8.00;;;;;;;;;;5033439;28;20025;-58
2021/09/22 07:00:45;;;;;;;14.93;8.10;;;;;;;;;;5033060;28;20468;-58
2021/09/22 07:03:14;;;;;;;12.82;7.38;;;;;;;;;;5033397;28;20021;-58
2021/09/22 07:05:40;;;;;;;15.57;8.87;;;;;;;;;;5032642;28;20022;-58
2021/09/22 07:08:05;;;;;;;16.27;9.10;;;;;;;;;;5033051;28;20407;-59
2021/09/22 07:10:31;;;;;;;14.10;8.93;;;;;;;;;;5032937;28;20113;-56
2021/09/22 07:12:57;;;;;;;18.67;8.98;;;;;;;;;;5030118;28;20022;-59
2021/09/22 07:15:22;;;;;;;24.25;9.10;;;;;;;;;;5032709;28;20045;-56
2021/09/22 07:17:47;;;;;;;22.15;10.13;;;;;;;;;;5033067;28;20156;-57
2021/09/22 07:20:12;;;;;;;18.20;10.07;;;;;;;;;;5032677;28;20033;-58
2021/09/22 07:22:38;;;;;;;20.20;10.02;;;;;;;;;;5032752;28;20175;-56
2021/09/22 07:25:03;;;;;;;23.25;10.85;;;;;;;;;;5032821;28;20083;-57
2021/09/22 07:27:28;;;;;;;17.92;9.55;;;;;;;;;;5032991;28;20049;-57
2021/09/22 07:29:55;;;;;;;20.25;10.15;;;;;;;;;;5033117;28;20447;-55
2021/09/22 07:32:20;;;;;;;16.33;9.40;;;;;;;;;;5032356;28;20037;-56
2021/09/22 07:34:45;;;;;;;14.65;9.60;;;;;;;;;;5015162;28;20083;-56
2021/09/22 07:37:11;;;;;;;20.70;9.48;;;;;;;;;;5032502;28;20036;-57
2021/09/22 07:39:38;;;;;;;20.17;9.55;;;;;;;;;;5033134;28;20093;-56
2021/09/22 07:42:03;;;;;;;20.17;10.02;;;;;;;;;;5014718;28;20030;-57
2021/09/22 07:44:28;;;;;;;23.08;10.43;;;;;;;;;;5032769;28;20048;-56
2021/09/22 07:46:53;;;;;;;22.45;9.82;;;;;;;;;;5032283;28;20060;-56
2021/09/22 07:49:18;;;;;;;19.38;9.70;;;;;;;;;;5032738;28;20017;-57
2021/09/22 07:51:44;;;;;;;20.95;10.18;;;;;;;;;;5032548;28;20403;-58
2021/09/22 07:54:09;;;;;;;24.02;10.20;;;;;;;;;;5015225;28;20017;-57
2021/09/22 07:56:34;;;;;;;16.35;9.18;;;;;;;;;;5032376;28;20108;-56
2021/09/22 07:58:59;;;;;;;24.10;9.48;;;;;;;;;;5032781;28;20024;-56
2021/09/22 08:01:25;;;;;;;23.27;9.75;;;;;;;;;;5032377;28;20048;-56
2021/09/22 08:03:50;;;;;;;21.00;9.25;;;;;;;;;;5032635;28;20052;-57
2021/09/22 08:06:15;;;;;;;21.83;10.10;;;;;;;;;;5032251;28;20450;-56
2021/09/22 08:08:40;;;;;;;39.33;11.30;;;;;;;;;;5032682;28;20103;-58
2021/09/22 08:11:06;;;;;;;26.40;11.57;;;;;;;;;;5034286;28;20033;-57
2021/09/22 08:13:31;;;;;;;28.23;12.38;;;;;;;;;;5036646;28;20029;-57
2021/09/22 08:15:56;;;;;;;35.00;11.77;;;;;;;;;;5036276;28;20049;-57
2021/09/22 08:18:21;;;;;;;38.22;13.27;;;;;;;;;;5036417;28;20041;-56
2021/09/22 08:20:47;;;;;;;37.33;12.75;;;;;;;;;;5036259;28;20022;-57
2021/09/22 08:23:12;;;;;;;44.75;12.93;;;;;;;;;;5036245;28;20497;-57
2021/09/22 08:25:37;;;;;;;66.72;11.85;;;;;;;;;;5035984;28;20033;-57
2021/09/22 08:28:03;;;;;;;75.18;13.70;;;;;;;;;;5036126;28;20040;-56
2021/09/22 08:30:28;;;;;;;50.60;12.18;;;;;;;;;;5035725;28;20197;-57
2021/09/22 08:32:53;;;;;;;48.97;12.25;;;;;;;;;;5036012;28;20024;-57
2021/09/22 08:35:18;;;;;;;60.42;13.43;;;;;;;;;;5035485;28;20052;-57
2021/09/22 08:37:44;;;;;;;43.05;11.13;;;;;;;;;;5018318;28;20013;-56
2021/09/22 08:40:09;;;;;;;62.92;13.02;;;;;;;;;;5035724;28;20456;-57
2021/09/22 08:42:34;;;;;;;56.97;12.85;;;;;;;;;;5035683;28;20468;-56
2021/09/22 08:45:00;;;;;;;51.97;12.00;;;;;;;;;;5035924;28;20021;-56
2021/09/22 08:47:25;;;;;;;44.65;11.95;;;;;;;;;;5035307;28;20041;-56
2021/09/22 08:49:50;;;;;;;57.17;12.02;;;;;;;;;;5036104;28;20452;-56
2021/09/22 08:52:16;;;;;;;57.60;11.73;;;;;;;;;;5035189;28;20403;-56
2021/09/22 08:54:41;;;;;;;77.47;12.55;;;;;;;;;;5035900;28;20045;-56
2021/09/22 08:57:06;;;;;;;40.30;11.07;;;;;;;;;;5035273;28;20475;-56
2021/09/22 08:59:32;;;;;;;53.47;12.68;;;;;;;;;;5035167;28;20101;-55
2021/09/22 09:02:10;;;;;;;59.80;13.50;;;;;;;;;;5035294;28;20033;-57
2021/09/22 09:04:36;;;;;;;57.78;11.63;;;;;;;;;;5034624;28;20079;-57
2021/09/22 09:07:01;;;;;;;63.47;12.27;;;;;;;;;;5034965;28;20129;-54
2021/09/22 09:09:32;;;;;;;53.15;11.90;;;;;;;;;;5035589;28;20464;-57
2021/09/22 09:11:58;;;;;;;48.50;12.48;;;;;;;;;;5035006;28;20086;-56
2021/09/22 09:14:23;;;;;;;60.97;13.13;;;;;;;;;;5035349;28;20048;-56
2021/09/22 09:16:49;;;;;;;65.53;12.95;;;;;;;;;;5034687;28;20033;-56
2021/09/22 09:19:15;;;;;;;52.58;12.30;;;;;;;;;;5035277;28;20430;-56
2021/09/22 09:22:19;;;;;;;68.18;13.88;;;;;;;;;;5033575;28;20112;-56
2021/09/22 09:24:47;;;;;;;50.20;12.63;;;;;;;;;;4984527;28;20023;-56
2021/09/22 09:27:24;;;;;;;59.67;14.13;;;;;;;;;;4973475;28;20555;-55
2021/09/22 09:29:54;;;;;;;63.08;15.18;;;;;;;;;;5007402;28;20125;-56
2021/09/22 09:32:24;;;;;;;60.22;13.88;;;;;;;;;;5034482;28;20033;-57
2021/09/22 09:34:56;;;;;;;67.73;13.83;;;;;;;;;;5035082;28;20475;-57
2021/09/22 09:37:31;;;;;;;54.75;13.98;;;;;;;;;;5034606;28;20041;-56
2021/09/22 09:39:56;;;;;;;47.40;15.13;;;;;;;;;;5035046;28;20374;-56
2021/09/22 09:42:27;;;;;;;64.60;15.50;;;;;;;;;;5034288;28;20145;-56
2021/09/22 09:44:52;;;;;;;50.08;13.77;;;;;;;;;;5034941;28;20048;-56
2021/09/22 09:47:17;;;;;;;52.60;13.98;;;;;;;;;;5032979;28;20480;-56
2021/09/22 09:49:43;;;;;;;54.47;14.60;;;;;;;;;;5033485;28;20021;-55
2021/09/22 09:52:08;;;;;;;39.00;13.68;;;;;;;;;;5033007;28;20080;-56
2021/09/22 09:54:36;;;;;;;34.85;14.35;;;;;;;;;;5034567;28;20029;-56
2021/09/22 09:57:11;;;;;;;42.40;13.55;;;;;;;;;;5034243;28;20029;-57
2021/09/22 09:59:44;;;;;;;35.20;13.18;;;;;;;;;;5034659;28;20025;-56
2021/09/22 10:02:11;;;;;;;41.67;14.88;;;;;;;;;;5034023;28;20037;-56
2021/09/22 10:04:37;;;;;;;40.20;14.52;;;;;;;;;;5032987;28;20079;-57
2021/09/22 10:07:02;;;;;;;34.47;14.80;;;;;;;;;;5033886;28;20483;-57
2021/09/22 10:09:28;;;;;;;42.03;14.50;;;;;;;;;;5034303;28;20422;-56
2021/09/22 10:11:53;;;;;;;34.40;14.57;;;;;;;;;;5033838;28;20037;-56
2021/09/22 10:14:18;;;;;;;42.45;14.90;;;;;;;;;;5032882;28;20025;-56
2021/09/22 10:16:44;;;;;;;48.30;14.90;;;;;;;;;;5033659;28;20387;-56
2021/09/22 10:19:09;;;;;;;36.35;15.05;;;;;;;;;;5032708;28;20029;-56
2021/09/22 10:21:37;;;;;;;31.30;15.30;;;;;;;;;;5033125;28;20124;-57
2021/09/22 10:24:02;;;;;;;46.85;15.38;;;;;;;;;;5033804;28;20033;-57
2021/09/22 10:26:28;;;;;;;40.63;15.45;;;;;;;;;;5033339;28;20034;-57
2021/09/22 10:28:56;;;;;;;32.50;14.38;;;;;;;;;;5032580;28;20033;-56
2021/09/22 10:31:21;;;;;;;34.00;15.02;;;;;;;;;;5033359;28;20034;-55
2021/09/22 10:33:47;;;;;;;27.23;14.35;;;;;;;;;;5033544;28;20032;-56
2021/09/22 10:36:13;;;;;;;26.75;14.15;;;;;;;;;;5032065;28;20033;-58
2021/09/22 10:38:41;;;;;;;31.27;14.43;;;;;;;;;;5033883;28;20026;-57
2021/09/22 10:41:06;;;;;;;31.38;13.85;;;;;;;;;;5033171;28;20032;-57
2021/09/22 10:43:41;;;;;;;26.65;14.50;;;;;;;;;;5015772;28;20017;-58
2021/09/22 10:46:07;;;;;;;25.70;14.90;;;;;;;;;;5032750;28;20037;-57
2021/09/22 10:48:33;;;;;;;25.38;13.25;;;;;;;;;;5033289;28;20562;-57
2021/09/22 10:51:04;;;;;;;25.30;13.85;;;;;;;;;;5032826;28;20048;-57
2021/09/22 10:53:32;;;;;;;24.58;13.88;;;;;;;;;;5033333;28;20021;-57
2021/09/22 10:56:12;;;;;;;26.02;13.30;;;;;;;;;;5032925;28;20383;-57
2021/09/22 10:58:50;;;;;;;25.65;14.77;;;;;;;;;;5032497;28;20460;-57
2021/09/22 11:01:28;;;;;;;25.48;14.73;;;;;;;;;;5015436;28;20120;-56
2021/09/22 11:03:53;;;;;;;25.15;13.98;;;;;;;;;;5033296;28;20030;-56
2021/09/22 11:06:37;;;;;;;29.35;15.75;;;;;;;;;;5032634;28;20095;-57
2021/09/22 11:09:03;;;;;;;28.00;13.23;;;;;;;;;;5033070;28;20048;-56
2021/09/22 11:11:47;;;;;;;22.13;12.05;;;;;;;;;;5014950;28;20036;-56
2021/09/22 11:14:30;;;;;;;26.73;12.93;;;;;;;;;;5033351;28;20022;-57
2021/09/22 11:16:59;;;;;;;21.63;12.60;;;;;;;;;;5032683;28;20469;-57
2021/09/22 11:19:25;;;;;;;25.67;12.73;;;;;;;;;;5033165;28;20106;-56
2021/09/22 11:21:50;;;;;;;19.77;11.75;;;;;;;;;;5032303;28;20038;-57
2021/09/22 11:24:20;;;;;;;24.25;11.93;;;;;;;;;;5033128;28;20028;-57
2021/09/22 11:26:52;;;;;;;22.83;12.52;;;;;;;;;;5032633;28;20483;-57
2021/09/22 11:29:34;;;;;;;19.77;12.35;;;;;;;;;;5031965;28;20428;-56
2021/09/22 11:31:59;;;;;;;22.13;12.45;;;;;;;;;;5032388;28;20088;-56
2021/09/22 11:34:25;;;;;;;21.33;11.75;;;;;;;;;;5029924;28;20017;-57
2021/09/22 11:37:09;;;;;;;19.35;11.25;;;;;;;;;;5032386;28;20498;-58
2021/09/22 11:39:35;;;;;;;20.02;11.27;;;;;;;;;;5032859;28;20429;-57
2021/09/22 11:42:00;;;;;;;22.17;11.98;;;;;;;;;;5032188;28;20494;-56
2021/09/22 11:44:27;;;;;;;18.77;11.23;;;;;;;;;;5031983;28;20033;-56
2021/09/22 11:46:53;;;;;;;17.33;10.25;;;;;;;;;;5031663;28;20033;-56
2021/09/22 11:49:18;;;;;;;23.38;10.93;;;;;;;;;;5032906;28;20079;-56
2021/09/22 11:51:43;;;;;;;18.45;10.23;;;;;;;;;;5032239;28;20438;-56
2021/09/22 11:54:18;;;;;;;18.58;10.20;;;;;;;;;;5032786;28;20531;-56
2021/09/22 11:56:44;;;;;;;20.90;10.32;;;;;;;;;;5032189;28;20037;-56
2021/09/22 11:59:09;;;;;;;18.60;10.02;;;;;;;;;;5032491;28;20017;-55
2021/09/22 12:01:35;;;;;;;16.48;10.48;;;;;;;;;;5032329;28;20042;-57
2021/09/22 12:04:00;;;;;;;18.45;10.90;;;;;;;;;;5031762;28;20099;-57
2021/09/22 12:06:25;;;;;;;18.52;10.00;;;;;;;;;;5030993;28;20034;-58
2021/09/22 12:08:53;;;;;;;15.80;10.00;;;;;;;;;;5032503;28;20079;-57
2021/09/22 12:11:18;;;;;;;18.95;9.77;;;;;;;;;;5032018;28;20363;-57
2021/09/22 12:13:44;;;;;;;15.63;9.77;;;;;;;;;;5032530;28;20026;-58
2021/09/22 12:16:10;;;;;;;14.88;9.45;;;;;;;;;;5032168;28;20466;-57
2021/09/22 12:18:35;;;;;;;18.55;8.40;;;;;;;;;;5032502;28;20083;-56
2021/09/22 12:21:00;;;;;;;24.15;9.25;;;;;;;;;;5032198;28;20116;-55
2021/09/22 12:23:27;;;;;;;18.00;8.50;;;;;;;;;;5014593;28;20522;-57
2021/09/22 12:26:04;;;;;;;23.60;8.43;;;;;;;;;;5014441;28;20449;-57
2021/09/22 12:28:29;;;;;;;22.83;8.70;;;;;;;;;;5014647;28;20082;-58
2021/09/22 12:30:54;;;;;;;20.92;8.98;;;;;;;;;;5031807;28;20030;-58
2021/09/22 12:33:20;;;;;;;17.88;9.48;;;;;;;;;;5032250;28;20072;-56
2021/09/22 12:35:45;;;;;;;17.27;8.50;;;;;;;;;;5032019;28;20026;-58
2021/09/22 12:38:15;;;;;;;15.77;7.90;;;;;;;;;;5032198;28;20502;-56
2021/09/22 12:40:41;;;;;;;19.02;8.18;;;;;;;;;;5031861;28;20030;-56
2021/09/22 12:43:26;;;;;;;20.92;9.10;;;;;;;;;;5014660;28;20021;-55
2021/09/22 12:45:51;;;;;;;15.68;8.15;;;;;;;;;;5031953;28;20034;-55
2021/09/22 12:48:26;;;;;;;14.90;8.27;;;;;;;;;;5032089;28;20037;-55
2021/09/22 12:50:51;;;;;;;24.05;8.40;;;;;;;;;;5031590;28;20030;-56
2021/09/22 12:53:17;;;;;;;12.90;7.22;;;;;;;;;;5014253;28;20024;-57
2021/09/22 12:55:42;;;;;;;17.95;7.15;;;;;;;;;;5031959;28;20103;-57
2021/09/22 12:58:08;;;;;;;11.40;6.82;;;;;;;;;;5035135;28;20025;-57
2021/09/22 13:00:36;;;;;;;12.15;6.57;;;;;;;;;;5035433;28;20033;-56
2021/09/22 13:03:11;;;;;;;14.35;7.13;;;;;;;;;;5035640;28;20028;-57
2021/09/22 13:05:37;;;;;;;15.13;6.30;;;;;;;;;;5035293;28;20026;-59
2021/09/22 13:08:05;;;;;;;16.42;6.45;;;;;;;;;;5035363;28;20037;-56
2021/09/22 13:10:30;;;;;;;16.92;6.28;;;;;;;;;;5035005;28;20037;-57
2021/09/22 13:12:56;;;;;;;16.58;6.47;;;;;;;;;;5017653;28;20042;-55
2021/09/22 13:15:24;;;;;;;17.92;6.68;;;;;;;;;;5016984;28;20033;-57
2021/09/22 13:17:50;;;;;;;13.25;6.10;;;;;;;;;;5035221;28;20464;-55
2021/09/22 13:20:15;;;;;;;17.13;5.43;;;;;;;;;;5034646;28;20108;-55
2021/09/22 13:22:40;;;;;;;17.92;6.53;;;;;;;;;;5035128;28;20085;-58
2021/09/22 13:25:05;;;;;;;21.83;6.43;;;;;;;;;;5034929;28;20448;-55
2021/09/22 13:27:31;;;;;;;17.48;5.78;;;;;;;;;;5034922;28;20360;-56
2021/09/22 13:29:56;;;;;;;10.60;5.05;;;;;;;;;;5035094;28;20032;-56
2021/09/22 13:32:21;;;;;;;19.80;5.40;;;;;;;;;;5034779;28;20044;-56
2021/09/22 13:34:46;;;;;;;18.20;5.45;;;;;;;;;;5035083;28;20032;-55
2021/09/22 13:37:12;;;;;;;18.52;5.10;;;;;;;;;;5034354;28;20539;-58
2021/09/22 13:39:37;;;;;;;22.48;6.93;;;;;;;;;;5035051;28;20013;-58
2021/09/22 13:42:02;;;;;;;23.30;8.27;;;;;;;;;;5034436;28;20172;-57
2021/09/22 13:44:28;;;;;;;24.38;6.95;;;;;;;;;;5034816;28;20537;-56
2021/09/22 13:46:53;;;;;;;25.20;7.07;;;;;;;;;;5034211;28;20399;-54
2021/09/22 13:49:18;;;;;;;18.40;5.82;;;;;;;;;;5031491;28;20044;-55
2021/09/22 13:51:44;;;;;;;15.25;6.00;;;;;;;;;;5034097;28;20025;-57
2021/09/22 13:54:09;;;;;;;11.93;5.65;;;;;;;;;;5034509;28;20029;-57
2021/09/22 13:56:34;;;;;;;13.75;6.68;;;;;;;;;;5034183;28;20034;-58
2021/09/22 13:59:00;;;;;;;22.40;7.10;;;;;;;;;;5034676;28;20024;-58
2021/09/22 14:01:25;;;;;;;17.23;6.45;;;;;;;;;;5015659;28;20040;-57
2021/09/22 14:03:51;;;;;;;17.63;7.10;;;;;;;;;;5034369;28;20130;-57
2021/09/22 14:06:16;;;;;;;12.63;6.10;;;;;;;;;;5033742;28;20057;-57
2021/09/22 14:08:41;;;;;;;18.05;5.70;;;;;;;;;;5033708;28;20040;-58
2021/09/22 14:11:07;;;;;;;23.02;5.97;;;;;;;;;;5033809;28;20384;-57
2021/09/22 14:13:32;;;;;;;17.83;5.97;;;;;;;;;;5034272;28;20033;-58
2021/09/22 14:15:58;;;;;;;17.05;6.97;;;;;;;;;;5033946;28;20026;-56
2021/09/22 14:18:23;;;;;;;34.53;6.40;;;;;;;;;;5034240;28;20018;-56